Time;durP1;ratioP1;P1;durP2;ratioP2;P2;SDS_P1;SDS_P2;PMS_P1;PMS_P2;Temp;Humidity;BMP_temperature;BMP_pressure;BME280_temperature;BME280_humidity;BME280_pressure;Samples;Min_cycle;Max_cycle;Signal;HPM_P1;HPM_P2
2023/10/14 07:01:48;;;;;;;10.70;4.57;;;17.70;99.90;;;;;;5589134;23;20250;-86
2023/10/14 07:04:24;;;;;;;10.73;4.87;;;17.70;99.90;;;;;;4885360;29;20457;-78
2023/10/14 07:06:52;;;;;;;9.53;4.70;;;17.80;99.90;;;;;;4917037;29;20247;-79
2023/10/14 07:09:27;;;;;;;11.67;4.80;;;17.80;99.90;;;;;;4915438;29;20207;-79
2023/10/14 07:12:07;;;;;;;14.47;4.90;;;18.00;99.90;;;;;;4916747;29;20180;-79
2023/10/14 07:14:44;;;;;;;13.70;4.70;;;18.10;99.90;;;;;;4915564;29;20208;-78
2023/10/14 07:17:22;;;;;;;15.73;4.77;;;18.20;99.90;;;;;;4931229;29;20183;-82
2023/10/14 07:20:02;;;;;;;10.67;4.87;;;18.30;99.90;;;;;;4914352;29;20302;-87
2023/10/14 07:22:38;;;;;;;14.77;5.10;;;18.40;99.90;;;;;;4916869;29;20576;-85
2023/10/14 07:25:06;;;;;;;12.50;5.10;;;18.50;99.90;;;;;;4920232;29;20191;-79
2023/10/14 07:27:38;;;;;;;10.40;4.63;;;18.60;99.90;;;;;;4916311;29;20286;-79
2023/10/14 07:30:14;;;;;;;12.73;5.40;;;18.70;99.90;;;;;;4916109;29;20210;-75
2023/10/14 07:32:45;;;;;;;15.13;5.40;;;18.90;99.90;;;;;;4915818;29;20242;-84
2023/10/14 07:35:21;;;;;;;14.33;5.33;;;19.10;99.90;;;;;;4930058;29;20192;-77
2023/10/14 07:38:06;;;;;;;12.40;5.10;;;19.20;99.90;;;;;;4859519;29;20546;-84
2023/10/14 07:40:40;;;;;;;9.40;4.80;;;19.20;99.90;;;;;;4876890;29;20243;-85
2023/10/14 07:43:27;;;;;;;14.37;5.43;;;19.30;99.90;;;;;;4875322;29;20240;-79
2023/10/14 07:46:09;;;;;;;12.50;5.20;;;19.50;99.90;;;;;;4817143;29;20614;-84
2023/10/14 07:48:42;;;;;;;15.93;5.33;;;19.40;99.90;;;;;;4820692;29;20667;-79
2023/10/14 07:51:21;;;;;;;12.60;5.17;;;19.70;99.90;;;;;;4806112;29;20639;-79
2023/10/14 07:53:57;;;;;;;15.83;5.50;;;20.40;99.90;;;;;;4820688;29;20736;-79
2023/10/14 07:56:26;;;;;;;20.23;5.60;;;21.00;99.90;;;;;;4820656;29;20290;-83
2023/10/14 07:59:01;;;;;;;13.87;6.00;;;21.30;99.90;;;;;;4821335;29;20211;-85
2023/10/14 08:01:29;;;;;;;11.70;5.60;;;21.50;99.90;;;;;;4821382;29;20237;-85
2023/10/14 08:03:58;;;;;;;12.67;5.43;;;21.80;99.90;;;;;;4821049;29;20231;-84
2023/10/14 08:06:31;;;;;;;14.47;5.40;;;21.80;99.90;;;;;;4821232;29;20223;-79
2023/10/14 08:09:05;;;;;;;12.00;5.70;;;21.80;99.90;;;;;;4839043;29;20609;-76
2023/10/14 08:11:40;;;;;;;13.03;6.00;;;21.90;99.90;;;;;;4856701;29;20214;-77
2023/10/14 08:14:09;;;;;;;11.33;5.80;;;21.80;99.90;;;;;;4856730;29;20293;-77
2023/10/14 08:16:37;;;;;;;14.70;5.87;;;22.10;99.90;;;;;;4858162;29;20240;-81
2023/10/14 08:19:21;;;;;;;13.53;5.40;;;22.40;99.90;;;;;;4857772;29;20718;-83
2023/10/14 08:21:53;;;;;;;9.83;5.77;;;22.60;99.90;;;;;;4857930;29;20818;-82
2023/10/14 08:24:24;;;;;;;10.20;5.70;;;22.60;99.90;;;;;;4907963;29;20211;-79
2023/10/14 08:26:56;;;;;;;12.67;5.73;;;23.00;99.90;;;;;;4915449;29;20278;-77
2023/10/14 08:29:27;;;;;;;14.97;5.93;;;22.80;99.90;;;;;;4929917;29;20665;-78
2023/10/14 08:32:06;;;;;;;12.10;5.70;;;22.80;99.90;;;;;;4915590;29;20565;-76
2023/10/14 08:34:34;;;;;;;11.13;5.80;;;22.80;99.90;;;;;;4915463;29;20661;-77
2023/10/14 08:37:07;;;;;;;13.10;5.70;;;22.80;99.90;;;;;;4915029;29;20687;-76
2023/10/14 08:39:37;;;;;;;13.67;5.90;;;22.80;99.90;;;;;;4914962;29;20636;-77
2023/10/14 08:42:09;;;;;;;15.90;6.30;;;22.90;99.90;;;;;;4914349;29;20239;-83
2023/10/14 08:44:49;;;;;;;13.47;6.43;;;23.20;99.90;;;;;;4914504;29;20274;-83
2023/10/14 08:47:24;;;;;;;11.93;6.30;;;23.30;99.90;;;;;;4915232;29;20303;-83
2023/10/14 08:50:15;;;;;;;11.85;6.20;;;23.20;99.90;;;;;;4913901;29;20211;-85
2023/10/14 08:52:56;;;;;;;13.77;6.17;;;23.40;99.90;;;;;;4932728;29;20180;-76
2023/10/14 08:55:24;;;;;;;11.07;6.30;;;23.80;99.90;;;;;;4919230;29;20196;-83
2023/10/14 08:57:52;;;;;;;12.53;6.10;;;24.00;99.90;;;;;;4919143;29;20199;-77
2023/10/14 09:00:39;;;;;;;11.60;6.40;;;24.30;99.90;;;;;;4918826;29;20726;-79
2023/10/14 09:03:11;;;;;;;11.77;6.45;;;24.50;99.90;;;;;;4933366;29;20326;-81
2023/10/14 09:05:44;;;;;;;11.15;6.25;;;24.30;99.90;;;;;;4933502;29;20195;-79
2023/10/14 09:08:19;;;;;;;12.48;5.97;;;24.70;99.90;;;;;;4918245;29;20659;-76
2023/10/14 09:10:57;;;;;;;11.70;6.32;;;25.10;99.90;;;;;;4917352;29;20207;-80
2023/10/14 09:13:28;;;;;;;10.93;6.32;;;25.20;99.90;;;;;;4918975;29;20194;-84
2023/10/14 09:15:58;;;;;;;14.52;6.25;;;25.60;99.90;;;;;;4917175;29;20668;-79
2023/10/14 09:18:32;;;;;;;12.02;6.55;;;26.00;99.90;;;;;;4918269;29;20535;-78
2023/10/14 09:21:05;;;;;;;12.43;6.45;;;25.80;99.90;;;;;;4918655;29;20302;-78
2023/10/14 09:23:44;;;;;;;14.20;6.38;;;25.20;99.90;;;;;;4918668;29;20183;-78
2023/10/14 09:26:18;;;;;;;12.60;6.72;;;24.80;99.90;;;;;;4918361;29;20647;-79
2023/10/14 09:28:48;;;;;;;11.57;6.55;;;24.40;99.90;;;;;;4918618;29;20651;-77
2023/10/14 09:48:24;;;;;;;15.20;6.73;;;23.70;99.90;;;;;;4637548;30;20305;-84
2023/10/14 12:42:03;;;;;;;;;;;;;;;;;;;;;
2023/10/14 12:45:11;;;;;;;14.63;5.30;;;21.90;99.90;;;;;;6036646;23;20200;-79
2023/10/14 12:47:49;;;;;;;10.30;5.10;;;21.70;99.90;;;;;;6015607;23;20240;-78
2023/10/14 12:50:22;;;;;;;12.83;5.93;;;21.80;99.90;;;;;;6038879;23;20267;-77
2023/10/14 12:53:03;;;;;;;10.90;5.70;;;21.80;99.90;;;;;;5985824;23;20173;-81
2023/10/14 12:55:31;;;;;;;12.83;5.60;;;21.80;99.90;;;;;;6008468;23;20175;-82
2023/10/14 12:58:07;;;;;;;12.57;5.10;;;21.90;99.90;;;;;;5986092;23;20588;-79
2023/10/14 13:00:42;;;;;;;11.33;5.50;;;22.00;99.90;;;;;;6009474;23;20179;-79
2023/10/14 13:03:18;;;;;;;23.03;6.10;;;22.10;99.90;;;;;;5987109;23;20171;-78
2023/10/14 13:05:54;;;;;;;24.33;7.40;;;22.20;99.90;;;;;;5985472;23;20515;-79
2023/10/14 13:08:23;;;;;;;11.33;5.27;;;22.20;99.90;;;;;;6008361;23;20256;-82
2023/10/14 13:10:54;;;;;;;15.43;5.73;;;22.20;99.90;;;;;;6009747;23;20191;-81
2023/10/14 13:13:23;;;;;;;9.47;5.20;;;22.20;99.90;;;;;;5985056;23;20179;-80
2023/10/14 13:15:54;;;;;;;16.40;5.40;;;22.10;99.90;;;;;;6006638;23;20623;-80
2023/10/14 13:18:24;;;;;;;9.10;5.30;;;22.00;99.90;;;;;;6010020;23;20231;-80
2023/10/14 13:20:58;;;;;;;13.00;5.57;;;22.00;99.90;;;;;;5984291;23;20596;-77
2023/10/14 13:23:26;;;;;;;12.10;5.30;;;21.90;99.90;;;;;;5984050;23;20234;-79
2023/10/14 13:25:56;;;;;;;9.80;4.93;;;21.70;99.90;;;;;;5984751;23;20180;-80
2023/10/14 13:28:50;;;;;;;10.83;4.93;;;21.80;99.90;;;;;;5987541;23;20156;-77
2023/10/14 13:31:30;;;;;;;9.87;5.10;;;21.80;99.90;;;;;;5986177;23;20221;-77
2023/10/14 13:34:04;;;;;;;13.20;4.53;;;21.80;99.90;;;;;;6008112;23;20479;-80
2023/10/14 13:36:38;;;;;;;13.20;4.87;;;21.80;99.90;;;;;;6080090;23;20214;-79
2023/10/14 13:39:34;;;;;;;12.53;4.80;;;21.80;99.90;;;;;;6180038;23;20206;-80
2023/10/14 13:42:05;;;;;;;8.73;4.57;;;21.60;99.90;;;;;;6128704;23;20176;-79
2023/10/14 13:44:41;;;;;;;9.63;4.03;;;21.60;99.90;;;;;;6130109;23;20470;-79
2023/10/14 13:47:11;;;;;;;7.37;3.10;;;21.70;99.90;;;;;;6126190;23;20514;-79
2023/10/14 13:49:56;;;;;;;6.10;2.70;;;21.60;99.90;;;;;;6131515;23;20164;-80
2023/10/14 13:52:51;;;;;;;6.77;2.60;;;21.30;99.90;;;;;;6098346;23;20637;-82
2023/10/14 14:07:24;;;;;;;11.30;2.60;;;21.00;99.90;;;;;;5984334;23;20183;-84
2023/10/14 14:29:27;;;;;;;4.23;2.00;;;19.80;99.90;;;;;;5745260;23;20318;-86
2023/10/14 14:38:26;;;;;;;;;;;;;;;;;;;;;
2023/10/14 14:45:46;;;;;;;6.67;3.30;;;17.70;99.90;;;;;;4738295;30;20201;-81
2023/10/14 14:48:25;;;;;;;8.70;3.70;;;17.40;99.90;;;;;;4730544;30;20210;-81
2023/10/14 14:51:14;;;;;;;7.03;3.57;;;16.80;99.90;;;;;;4745593;30;20237;-83
2023/10/14 14:54:12;;;;;;;7.70;3.40;;;16.50;99.90;;;;;;4740636;30;20217;-83
2023/10/14 14:57:09;;;;;;;7.57;3.23;;;16.60;99.90;;;;;;4744399;30;20219;-80
2023/10/14 15:00:14;;;;;;;8.27;3.70;;;16.20;99.90;;;;;;4744069;30;20263;-83
2023/10/14 15:03:10;;;;;;;7.60;3.50;;;16.30;99.90;;;;;;4756549;30;20213;-83
2023/10/14 15:05:52;;;;;;;8.77;3.67;;;16.10;99.90;;;;;;4763642;30;20283;-82
2023/10/14 15:08:51;;;;;;;6.90;3.73;;;16.00;99.90;;;;;;4762085;30;20650;-82
2023/10/14 15:11:46;;;;;;;6.50;3.23;;;15.90;99.90;;;;;;4762037;30;20283;-81
2023/10/14 15:15:03;;;;;;;6.53;3.50;;;15.80;99.90;;;;;;4761862;30;20209;-82
2023/10/14 15:18:54;;;;;;;6.13;2.90;;;15.70;99.90;;;;;;4743499;30;20261;-82
2023/10/14 15:21:42;;;;;;;9.30;2.80;;;15.80;99.90;;;;;;4759425;29;20333;-82
2023/10/14 15:24:30;;;;;;;4.47;2.40;;;15.70;99.90;;;;;;4801498;29;20306;-82
2023/10/14 15:27:34;;;;;;;6.40;2.60;;;15.60;99.90;;;;;;4814299;29;20242;-80
2023/10/14 15:30:18;;;;;;;8.77;3.00;;;15.50;99.90;;;;;;4792305;29;20323;-81
2023/10/14 15:33:06;;;;;;;;;;;;;;;;;;;;;
2023/10/14 15:35:53;;;;;;;5.40;3.30;;;15.50;99.90;;;;;;4768237;30;20232;-81
2023/10/14 15:38:24;;;;;;;6.53;3.47;;;15.50;99.90;;;;;;4753400;30;20225;-81
2023/10/14 15:40:55;;;;;;;7.40;4.03;;;15.60;99.90;;;;;;4754070;30;20688;-81
2023/10/14 15:43:50;;;;;;;6.33;4.07;;;15.60;99.90;;;;;;4754170;30;20204;-80
2023/10/14 15:47:17;;;;;;;7.13;4.80;;;15.60;99.90;;;;;;4764853;30;20259;-79
2023/10/14 15:50:31;;;;;;;11.07;4.77;;;15.30;99.90;;;;;;4760293;30;20248;-81
2023/10/14 15:53:46;;;;;;;11.53;5.07;;;15.60;99.90;;;;;;4756820;29;20212;-82
2023/10/14 15:57:08;;;;;;;9.83;5.50;;;15.70;99.90;;;;;;4803693;29;20683;-81
2023/10/14 16:00:36;;;;;;;11.07;6.53;;;15.70;99.90;;;;;;4767447;30;20304;-82
2023/10/14 16:03:30;;;;;;;10.17;6.20;;;15.70;99.90;;;;;;4686991;30;20231;-83
2023/10/14 16:07:06;;;;;;;10.90;5.60;;;15.60;99.90;;;;;;4710245;30;20241;-83
2023/10/14 16:10:13;;;;;;;9.20;4.63;;;15.50;99.90;;;;;;4663651;30;20251;-83
2023/10/14 16:14:20;;;;;;;;;;;;;;;;;;;;;
2023/10/14 16:17:50;;;;;;;4.80;2.60;;;15.20;99.90;;;;;;4662835;30;20260;-84
2023/10/14 16:20:53;;;;;;;6.60;3.50;;;15.00;99.90;;;;;;4685704;30;20370;-81
2023/10/14 16:24:22;;;;;;;4.77;2.60;;;15.20;99.90;;;;;;4696226;30;20287;-81
2023/10/14 16:27:54;;;;;;;5.80;2.47;;;14.80;99.90;;;;;;4695069;30;20217;-82
2023/10/14 16:30:40;;;;;;;4.20;1.90;;;15.00;99.90;;;;;;4685710;30;20722;-82
2023/10/14 16:33:27;;;;;;;5.07;2.47;;;14.90;99.90;;;;;;4697065;30;20203;-81
2023/10/14 16:36:17;;;;;;;6.50;2.20;;;14.60;99.90;;;;;;4662505;30;20308;-81
2023/10/14 16:38:59;;;;;;;3.70;2.07;;;14.60;99.90;;;;;;4660299;30;20287;-80
2023/10/14 16:42:35;;;;;;;;;;;;;;;;;;;;;
2023/10/14 16:53:48;;;;;;;7.80;2.97;;;14.40;99.90;;;;;;4805418;29;20218;-79
2023/10/14 16:56:46;;;;;;;4.17;2.70;;;14.40;99.90;;;;;;4820192;29;20207;-80
2023/10/14 16:59:42;;;;;;;7.00;3.20;;;14.30;99.90;;;;;;4803982;29;20233;-82
2023/10/14 17:03:06;;;;;;;4.83;2.53;;;14.40;99.90;;;;;;4820793;29;20214;-80
2023/10/14 17:06:14;;;;;;;6.30;2.90;;;14.40;99.90;;;;;;4817834;29;20229;-80
2023/10/14 17:08:50;;;;;;;5.67;3.27;;;14.30;99.90;;;;;;4818726;29;20199;-79
2023/10/14 17:12:23;;;;;;;5.00;3.40;;;14.20;99.90;;;;;;4820353;29;20303;-81
2023/10/14 17:16:08;;;;;;;7.63;4.00;;;14.20;99.90;;;;;;4686146;30;20587;-82
2023/10/14 17:19:06;;;;;;;6.97;4.30;;;14.30;99.90;;;;;;4682077;30;20409;-81
2023/10/14 18:11:18;;;;;;;7.53;4.60;;;13.60;99.90;;;;;;5464111;24;20251;-78
2023/10/14 18:13:49;;;;;;;6.07;4.67;;;13.50;99.90;;;;;;4772056;29;20236;-76
2023/10/14 18:16:21;;;;;;;7.97;4.90;;;13.60;99.90;;;;;;4781336;29;20211;-76
2023/10/14 18:18:49;;;;;;;10.27;5.03;;;13.50;99.90;;;;;;4804786;29;20239;-79
2023/10/14 18:21:31;;;;;;;7.20;4.73;;;13.40;99.90;;;;;;4804433;29;20251;-77
2023/10/14 18:24:11;;;;;;;8.33;4.73;;;13.40;99.90;;;;;;4804687;29;20630;-78
2023/10/14 18:26:43;;;;;;;10.33;4.77;;;13.20;99.90;;;;;;4804519;29;20211;-78
2023/10/14 18:29:39;;;;;;;8.63;5.07;;;13.30;99.90;;;;;;4797235;29;20203;-75
2023/10/14 18:32:08;;;;;;;7.97;4.80;;;13.20;99.90;;;;;;4773719;29;20203;-77
2023/10/14 18:34:40;;;;;;;8.83;4.97;;;13.20;99.90;;;;;;4803870;29;20721;-76
2023/10/14 18:37:14;;;;;;;7.20;4.83;;;13.20;99.90;;;;;;4787144;29;20325;-74
2023/10/14 18:39:46;;;;;;;8.87;4.60;;;13.20;99.90;;;;;;4787648;29;20295;-78
2023/10/14 18:42:13;;;;;;;7.57;4.77;;;13.10;99.90;;;;;;4804339;29;20206;-77
2023/10/14 18:44:59;;;;;;;8.97;5.07;;;13.20;99.90;;;;;;4803658;29;20252;-78
2023/10/14 18:47:38;;;;;;;7.23;4.70;;;13.10;99.90;;;;;;4789533;29;20245;-77
2023/10/14 18:50:11;;;;;;;8.07;5.23;;;13.10;99.90;;;;;;4788467;29;20659;-77
2023/10/14 18:52:50;;;;;;;8.23;5.33;;;13.00;99.90;;;;;;4803759;29;20302;-78
2023/10/14 18:55:29;;;;;;;8.00;5.00;;;13.00;99.90;;;;;;4780531;29;20519;-79
2023/10/14 18:58:09;;;;;;;10.03;5.37;;;13.10;99.90;;;;;;4788289;29;20226;-77
2023/10/14 19:00:44;;;;;;;8.97;5.13;;;12.90;99.90;;;;;;4787714;29;20231;-74
2023/10/14 19:03:13;;;;;;;10.90;5.30;;;12.90;99.90;;;;;;4803048;29;20207;-73
2023/10/14 19:05:45;;;;;;;9.93;5.17;;;12.80;99.90;;;;;;4806843;29;20279;-79
2023/10/14 19:08:15;;;;;;;10.47;5.70;;;13.00;99.90;;;;;;4807968;29;20208;-74
2023/10/14 19:10:50;;;;;;;10.10;5.17;;;12.70;99.90;;;;;;4807309;29;20617;-74
2023/10/14 19:13:27;;;;;;;8.53;5.20;;;13.00;99.90;;;;;;4824562;29;20235;-81
2023/10/14 19:15:58;;;;;;;9.63;5.27;;;12.70;99.90;;;;;;4810232;29;20223;-79
2023/10/14 19:18:31;;;;;;;10.53;5.27;;;12.70;99.90;;;;;;4825228;29;20226;-77
2023/10/14 19:23:45;;;;;;;9.20;5.37;;;12.80;99.90;;;;;;5122278;24;20591;-85
2023/10/14 21:57:49;;;;;;;9.17;4.03;;;12.10;99.90;;;;;;5528733;24;20249;-83
2023/10/14 22:00:22;;;;;;;9.60;3.97;;;12.10;99.90;;;;;;4751610;30;20193;-81
2023/10/14 22:02:55;;;;;;;10.43;3.97;;;12.00;99.90;;;;;;4750906;30;20209;-79
2023/10/14 22:05:29;;;;;;;11.23;3.90;;;12.00;99.90;;;;;;4749971;30;20198;-77
2023/10/14 22:08:11;;;;;;;9.73;4.17;;;11.80;99.90;;;;;;4719755;30;20198;-77
2023/10/14 22:10:40;;;;;;;9.17;4.30;;;12.00;99.90;;;;;;4733040;30;20229;-78
2023/10/14 22:13:17;;;;;;;9.90;3.87;;;11.90;99.90;;;;;;4733386;30;20283;-79
2023/10/14 22:15:48;;;;;;;9.43;4.07;;;11.80;99.90;;;;;;4717847;30;20292;-79
2023/10/14 22:18:26;;;;;;;7.87;3.47;;;12.00;99.90;;;;;;4733438;30;20252;-79
2023/10/14 22:21:00;;;;;;;11.87;4.23;;;11.80;99.90;;;;;;4733971;30;20221;-77
2023/10/14 22:23:35;;;;;;;9.13;3.70;;;11.70;99.90;;;;;;4732432;30;20226;-77
2023/10/14 22:26:07;;;;;;;10.03;4.00;;;11.70;99.90;;;;;;4732454;30;20214;-80
2023/10/14 22:28:48;;;;;;;14.73;4.53;;;11.70;99.90;;;;;;4733461;30;20226;-77
2023/10/14 22:31:22;;;;;;;13.17;4.00;;;11.60;99.90;;;;;;4732902;30;20237;-78
2023/10/14 22:33:52;;;;;;;9.67;3.83;;;11.60;99.90;;;;;;4717102;30;20298;-77
2023/10/14 22:36:31;;;;;;;9.20;3.83;;;11.60;99.90;;;;;;4732281;30;20226;-76
2023/10/14 22:39:12;;;;;;;8.20;3.60;;;11.50;99.90;;;;;;4732044;30;20222;-78
2023/10/14 22:41:44;;;;;;;8.17;3.10;;;11.60;99.90;;;;;;4719671;30;20264;-78
2023/10/14 22:44:19;;;;;;;10.40;3.43;;;11.60;99.90;;;;;;4728800;30;20279;-76
2023/10/14 22:46:58;;;;;;;10.93;3.43;;;11.70;99.90;;;;;;4735927;30;20206;-78
2023/10/14 22:49:27;;;;;;;6.13;3.30;;;11.40;99.90;;;;;;4735263;30;20659;-80
2023/10/14 22:51:54;;;;;;;9.73;3.47;;;11.40;99.90;;;;;;4736912;30;20750;-77
2023/10/14 22:54:23;;;;;;;10.70;3.70;;;11.40;99.90;;;;;;4736453;30;20214;-78
2023/10/14 22:56:52;;;;;;;10.53;3.40;;;11.40;99.90;;;;;;4705804;30;20237;-78
2023/10/14 22:59:34;;;;;;;9.53;3.00;;;11.30;99.90;;;;;;4734346;30;20265;-77
2023/10/14 23:02:06;;;;;;;10.10;3.40;;;11.60;99.90;;;;;;4736562;30;20212;-78
2023/10/14 23:04:38;;;;;;;8.27;3.33;;;11.50;99.90;;;;;;4735724;30;20580;-77
2023/10/14 23:07:10;;;;;;;10.47;3.67;;;11.20;99.90;;;;;;4735422;30;20271;-77
2023/10/14 23:09:40;;;;;;;7.70;3.30;;;11.20;99.90;;;;;;4736274;30;20186;-79
2023/10/14 23:12:13;;;;;;;10.87;3.27;;;11.20;99.90;;;;;;4736535;30;20203;-81
2023/10/14 23:14:47;;;;;;;7.93;2.90;;;11.20;99.90;;;;;;4735593;30;20293;-79
2023/10/14 23:17:30;;;;;;;10.63;3.77;;;11.20;99.90;;;;;;4736105;30;20285;-79
2023/10/14 23:20:03;;;;;;;8.47;3.37;;;11.20;99.90;;;;;;4736400;30;20313;-77
2023/10/14 23:22:46;;;;;;;11.37;3.27;;;11.10;99.90;;;;;;4736822;30;20638;-78
2023/10/14 23:25:19;;;;;;;9.30;3.10;;;11.10;99.90;;;;;;4735139;30;20300;-79
2023/10/14 23:27:47;;;;;;;8.03;2.70;;;11.00;99.90;;;;;;4734833;30;20198;-77
2023/10/14 23:30:18;;;;;;;9.67;2.90;;;10.70;99.90;;;;;;4725163;30;20209;-78
2023/10/14 23:32:54;;;;;;;8.20;2.87;;;10.90;99.90;;;;;;4751162;30;20208;-80
2023/10/14 23:35:27;;;;;;;10.90;3.00;;;10.90;99.90;;;;;;4738518;30;20226;-76
2023/10/14 23:38:01;;;;;;;8.60;3.10;;;10.80;99.90;;;;;;4753737;30;20621;-81
2023/10/14 23:40:32;;;;;;;10.53;3.13;;;11.00;99.90;;;;;;4753968;30;20391;-80
2023/10/14 23:43:13;;;;;;;7.87;3.23;;;10.80;99.90;;;;;;4753592;30;20536;-77
2023/10/14 23:45:41;;;;;;;9.57;3.20;;;10.90;99.90;;;;;;4751267;30;20623;-78
2023/10/14 23:48:13;;;;;;;7.93;3.03;;;10.70;99.90;;;;;;4736336;30;20239;-77
2023/10/14 23:50:54;;;;;;;8.03;2.97;;;10.90;99.90;;;;;;4753120;30;20217;-77
2023/10/14 23:53:28;;;;;;;8.63;3.10;;;10.90;99.90;;;;;;4753021;30;20194;-78
2023/10/14 23:56:00;;;;;;;9.00;3.00;;;10.50;99.90;;;;;;4752421;30;20206;-77
2023/10/14 23:58:39;;;;;;;8.30;2.97;;;10.50;99.90;;;;;;4751102;30;20257;-78
